ORMM

Basrah International Airport

Basrah, Iraq
TAF ORMM 210400Z 2106/2206 27015G25KT CAVOK TEMPO 2106/2113 2000 BLDU
Issued Valid From Valid To
Jul-21 @ 04:00 UTC
(6 hours ago)
Jul-21 @ 06:00 UTC
(4 hours ago)
Jul-22 @ 06:00 UTC
(in 20 hours)
Jul-21 @ 06:00 to Jul-22 @ 06:00
TAF ORMM 210400Z 2106/2206 27015G25KT CAVOK
Wind Visibility Clouds Conditions
270° at 15 knots
 Gusting to 25 knots
10,000+ meters
  • No significant clouds
Temporary Jul-21 @ 06:00 to Jul-21 @ 13:00
TEMPO 2106/2113 2000 BLDU
Visibility Conditions
1,996 meters
  • Blowing
  • Dust
TAF ORMM 210400Z 2106/2206 27015G25KT CAVOK TEMPO 2106/2113 2000 BLDU
Issued Jul-21 @ 04:00 UTC
(6 hours ago)
Valid From Jul-21 @ 06:00 UTC
(4 hours ago)
Valid To Jul-22 @ 06:00 UTC
(in 20 hours)
Jul-21 @ 06:00 - Jul-22 @ 06:00
Wind Visibility
270° at 15 knots
 Gusting to 25 knots
10,000+ meters
Clouds
  • No significant clouds
Conditions
Temporary Jul-21 @ 06:00 - Jul-21 @ 13:00
Conditions
  • Blowing
  • Dust